KDSV/DSV METAR and TAF weather

Enter ICAO airport designator
Station Type Date Time Source
KDSV METAR 2022/01/29 10:03 UTC NOAA

KDSV 291003Z AUTO 32008KT 2 1/2SM -SN OVC024 M13/M17 A3012 RMK AO2 P0000 T11331167


Station Type Date Time Source
KDSV Decoded METAR 2022/01/29 10:03 UTC NOAA

DANSVILLE MUNICIPAL AIRPORT, NY, United States (KDSV) 42-34N 077-43W 198M
Jan 29, 2022 - 05:03 AM EST / 2022.01.29 1003 UTC
Wind: from the NW (320 degrees) at 9 MPH (8 KT):0
Visibility: 2 1/2 mile(s):0
Sky conditions: overcast
Weather: light snow
Precipitation last hour: A trace
Temperature: 8.1 F (-13.3 C)
Windchill: -5 F (-21 C):2
Dew Point: 1.9 F (-16.7 C)
Relative Humidity: 75%
Pressure (altimeter): 30.12 in. Hg (1019 hPa)
ob: KDSV 291003Z AUTO 32008KT 2 1/2SM -SN OVC024 M13/M17 A3012 RMK AO2 P0000 T11331167
cycle: 10

Station Type Date Time Source
KDSV TAF UTC NOAA

Error!

Example: see airport list